createdAt,value
2024-01-25T00:00:36.047Z,4.20
2024-01-25T00:03:04.605Z,3.67
2024-01-25T00:05:34.863Z,5.03
2024-01-25T00:08:03.832Z,4.18
2024-01-25T00:10:32.234Z,4.00
2024-01-25T00:13:00.734Z,4.13
2024-01-25T00:15:29.277Z,4.38
2024-01-25T00:17:58.188Z,5.05
2024-01-25T00:20:26.812Z,4.10
2024-01-25T00:22:56.680Z,3.97
2024-01-25T00:25:25.179Z,5.30
2024-01-25T00:27:54.200Z,5.80
2024-01-25T00:30:22.695Z,4.68
2024-01-25T00:32:51.189Z,4.72
2024-01-25T00:35:20.935Z,4.10
2024-01-25T00:37:49.993Z,4.30
2024-01-25T00:40:20.941Z,5.35
2024-01-25T00:42:54.341Z,4.90
2024-01-25T00:45:23.697Z,4.95
2024-01-25T00:47:53.197Z,5.68
2024-01-25T00:50:25.400Z,4.80
2024-01-25T00:52:54.699Z,4.40
2024-01-25T00:55:25.533Z,4.78
2024-01-25T00:57:54.575Z,5.22
2024-01-25T01:00:24.205Z,5.55
2024-01-25T01:02:54.234Z,4.78
2024-01-25T01:05:23.640Z,5.28
2024-01-25T01:07:53.101Z,5.35
2024-01-25T01:10:21.727Z,4.93
2024-01-25T01:12:53.279Z,5.47
2024-01-25T01:15:21.886Z,5.05
2024-01-25T01:17:50.441Z,4.88
2024-01-25T01:20:19.393Z,5.18
2024-01-25T01:22:47.874Z,4.30
2024-01-25T01:25:16.465Z,5.43
2024-01-25T01:27:44.994Z,5.63
2024-01-25T01:30:15.233Z,5.93
2024-01-25T01:32:43.894Z,5.30
2024-01-25T01:35:12.800Z,4.38
2024-01-25T01:37:41.376Z,4.45
2024-01-25T01:40:10.840Z,4.78
2024-01-25T01:42:39.305Z,5.25
2024-01-25T01:45:08.987Z,4.70
2024-01-25T01:47:38.997Z,5.30
2024-01-25T01:50:08.884Z,4.57
2024-01-25T01:52:37.883Z,4.80
2024-01-25T01:55:07.756Z,5.63
2024-01-25T01:57:36.848Z,4.95
2024-01-25T02:00:09.433Z,4.20
2024-01-25T02:02:42.182Z,5.28
2024-01-25T02:05:11.868Z,4.85
2024-01-25T02:07:41.955Z,5.15
2024-01-25T02:10:11.529Z,5.28
2024-01-25T02:12:40.829Z,5.18
2024-01-25T02:15:09.904Z,4.75
2024-01-25T02:17:39.001Z,5.20
2024-01-25T02:20:10.898Z,4.40
2024-01-25T02:22:40.943Z,5.10
2024-01-25T02:25:10.112Z,5.72
2024-01-25T02:27:40.200Z,4.80
2024-01-25T02:30:09.590Z,4.60
2024-01-25T02:32:38.194Z,4.68
2024-01-25T02:35:07.771Z,5.22
2024-01-25T02:37:36.308Z,4.78
2024-01-25T02:40:07.233Z,4.95
2024-01-25T02:42:35.817Z,5.00
2024-01-25T02:45:04.432Z,5.68
2024-01-25T02:47:32.970Z,5.40
2024-01-25T02:50:01.632Z,4.65
2024-01-25T02:52:30.127Z,5.20
2024-01-25T02:54:58.634Z,6.20
2024-01-25T02:57:28.541Z,5.75
2024-01-25T02:59:56.910Z,4.43
2024-01-25T03:02:25.362Z,5.35
2024-01-25T03:04:54.272Z,5.38
2024-01-25T03:07:22.866Z,4.15
2024-01-25T03:09:51.403Z,4.97
2024-01-25T03:12:19.809Z,4.72
2024-01-25T03:14:50.710Z,5.70
2024-01-25T03:17:19.630Z,5.40
2024-01-25T03:19:49.226Z,4.20
2024-01-25T03:22:18.255Z,4.72
2024-01-25T03:24:46.766Z,5.10
2024-01-25T03:27:15.672Z,5.40
2024-01-25T03:29:44.794Z,4.25
2024-01-25T03:32:14.987Z,5.80
2024-01-25T03:34:43.457Z,5.00
2024-01-25T03:37:12.097Z,4.63
2024-01-25T03:39:40.608Z,5.03
2024-01-25T03:42:09.868Z,4.80
2024-01-25T03:44:38.600Z,5.47
2024-01-25T03:47:07.190Z,5.15
2024-01-25T03:49:37.243Z,4.93
2024-01-25T03:52:06.381Z,4.88
2024-01-25T03:54:34.889Z,5.45
2024-01-25T03:57:03.391Z,4.68
2024-01-25T03:59:32.522Z,4.47
2024-01-25T04:02:01.253Z,4.38
2024-01-25T04:04:29.939Z,5.57
2024-01-25T04:06:59.919Z,6.40
2024-01-25T04:09:28.382Z,5.72
2024-01-25T04:11:57.231Z,4.85
2024-01-25T04:14:25.625Z,4.95
2024-01-25T04:16:54.015Z,5.80
2024-01-25T04:19:22.633Z,5.85
2024-01-25T04:21:51.210Z,4.40
2024-01-25T04:24:21.063Z,5.75
2024-01-25T04:26:49.511Z,5.38
2024-01-25T04:29:18.005Z,5.80
2024-01-25T04:31:46.917Z,5.43
2024-01-25T04:34:15.965Z,5.15
2024-01-25T04:36:45.504Z,5.15
2024-01-25T04:39:13.960Z,5.18
2024-01-25T04:41:43.804Z,4.45
2024-01-25T04:44:12.261Z,5.05
2024-01-25T04:46:40.710Z,5.43
2024-01-25T04:49:09.263Z,5.05
2024-01-25T04:51:37.935Z,7.95
2024-01-25T04:54:07.729Z,7.05
2024-01-25T04:56:36.147Z,5.53
2024-01-25T04:59:05.968Z,5.30
2024-01-25T05:01:34.545Z,4.70
2024-01-25T05:04:04.788Z,5.60
2024-01-25T05:06:33.530Z,4.80
2024-01-25T05:09:02.234Z,4.75
2024-01-25T05:11:30.663Z,5.45
2024-01-25T05:13:59.046Z,5.85
2024-01-25T05:16:29.140Z,5.45
2024-01-25T05:18:57.768Z,5.85
2024-01-25T05:21:26.509Z,5.32
2024-01-25T05:23:54.906Z,5.22
2024-01-25T05:26:23.540Z,4.80
2024-01-25T05:28:51.928Z,5.65
2024-01-25T05:31:20.426Z,5.50
2024-01-25T05:33:50.348Z,4.13
2024-01-25T05:36:19.000Z,4.93
2024-01-25T05:38:47.427Z,4.72
2024-01-25T05:41:15.852Z,5.32
2024-01-25T05:43:44.258Z,4.95
2024-01-25T05:46:12.770Z,5.10
2024-01-25T05:48:41.648Z,4.68
2024-01-25T05:51:11.548Z,5.18
2024-01-25T05:53:39.981Z,5.75
2024-01-25T05:56:09.006Z,5.03
2024-01-25T05:58:38.694Z,5.77
2024-01-25T06:01:07.364Z,5.22
2024-01-25T06:03:36.034Z,4.40
2024-01-25T06:06:05.094Z,4.85
2024-01-25T06:08:35.007Z,5.72
2024-01-25T06:11:03.617Z,5.63
2024-01-25T06:13:33.712Z,4.75
2024-01-25T06:16:02.383Z,6.00
2024-01-25T06:18:30.928Z,5.18
2024-01-25T06:20:59.452Z,5.55
2024-01-25T06:23:27.906Z,6.40
2024-01-25T06:25:57.795Z,5.43
2024-01-25T06:28:26.965Z,5.57
2024-01-25T06:30:55.451Z,4.93
2024-01-25T06:33:24.111Z,4.68
2024-01-25T06:35:52.552Z,4.75
2024-01-25T06:38:21.358Z,5.15
2024-01-25T06:40:49.797Z,5.38
2024-01-25T06:43:19.815Z,5.40
2024-01-25T06:45:48.371Z,5.32
2024-01-25T06:48:16.893Z,5.47
2024-01-25T06:50:45.886Z,5.45
2024-01-25T06:53:14.340Z,5.35
2024-01-25T06:55:42.831Z,6.18
2024-01-25T06:58:11.416Z,5.38
2024-01-25T07:00:43.874Z,4.65
2024-01-25T07:03:12.985Z,4.90
2024-01-25T07:05:41.637Z,5.65
2024-01-25T07:08:14.464Z,5.47
2024-01-25T07:10:43.193Z,6.43
2024-01-25T07:13:11.807Z,6.35
2024-01-25T07:15:42.118Z,5.97
2024-01-25T07:18:10.802Z,4.97
2024-01-25T07:20:39.656Z,5.63
2024-01-25T07:23:08.233Z,5.18
2024-01-25T07:25:36.744Z,5.00
2024-01-25T07:28:05.595Z,5.20
2024-01-25T07:30:34.476Z,6.13
2024-01-25T07:33:04.390Z,5.83
2024-01-25T07:35:32.960Z,5.32
2024-01-25T07:38:01.413Z,6.13
2024-01-25T07:40:30.104Z,5.70
2024-01-25T07:42:58.679Z,5.47
2024-01-25T07:45:27.880Z,5.70
2024-01-25T07:48:04.072Z,6.20
2024-01-25T07:50:39.146Z,5.22
2024-01-25T07:53:07.706Z,5.55
2024-01-25T07:55:36.244Z,4.95
2024-01-25T07:58:04.935Z,4.60
2024-01-25T08:00:33.631Z,5.57
2024-01-25T08:03:02.227Z,4.85
2024-01-25T08:05:37.577Z,4.82
2024-01-25T08:08:14.737Z,5.50
2024-01-25T08:10:44.395Z,5.38
2024-01-25T08:13:13.396Z,5.22
2024-01-25T08:15:41.920Z,4.90
2024-01-25T08:18:10.519Z,5.07
2024-01-25T08:20:41.207Z,4.88
2024-01-25T08:23:10.518Z,5.85
2024-01-25T08:25:40.458Z,5.80
2024-01-25T08:28:08.945Z,5.25
2024-01-25T08:30:40.333Z,5.53
2024-01-25T08:33:09.247Z,5.38
2024-01-25T08:35:38.034Z,5.20
2024-01-25T08:38:06.840Z,5.30
2024-01-25T08:40:35.550Z,5.32
2024-01-25T08:43:06.746Z,4.80
2024-01-25T08:45:35.401Z,4.85
2024-01-25T08:48:04.144Z,5.38
2024-01-25T08:50:33.016Z,5.38
2024-01-25T08:53:02.123Z,6.38
2024-01-25T08:55:30.697Z,6.75
2024-01-25T08:57:59.335Z,5.10
2024-01-25T09:00:29.213Z,4.85
2024-01-25T09:02:58.056Z,5.72
2024-01-25T09:05:29.429Z,5.72
2024-01-25T09:07:58.198Z,5.13
2024-01-25T09:10:26.825Z,5.00
2024-01-25T09:12:55.737Z,4.93
2024-01-25T09:15:24.398Z,4.72
2024-01-25T09:17:54.379Z,4.82
2024-01-25T09:20:23.015Z,5.45
2024-01-25T09:22:51.492Z,5.00
2024-01-25T09:25:20.369Z,5.22
2024-01-25T09:27:48.846Z,5.15
2024-01-25T09:30:18.067Z,5.43
2024-01-25T09:32:46.770Z,5.78
2024-01-25T09:35:18.775Z,5.75
2024-01-25T09:37:47.491Z,5.43
2024-01-25T09:40:16.221Z,6.13
2024-01-25T09:42:44.833Z,6.25
2024-01-25T09:45:19.852Z,6.20
2024-01-25T09:47:49.256Z,6.00
2024-01-25T09:50:19.791Z,5.38
2024-01-25T09:52:56.235Z,5.43
2024-01-25T09:55:27.762Z,6.05
2024-01-25T09:57:57.726Z,6.30
2024-01-25T10:00:26.566Z,7.00
2024-01-25T10:02:55.748Z,5.40
2024-01-25T10:05:25.694Z,5.68
2024-01-25T10:07:54.688Z,5.88
2024-01-25T10:10:23.285Z,6.32
2024-01-25T10:12:51.746Z,6.63
2024-01-25T10:15:20.286Z,6.22
2024-01-25T10:18:06.274Z,6.22
2024-01-25T10:20:38.847Z,5.90
2024-01-25T10:23:08.227Z,6.13
2024-01-25T10:25:37.686Z,6.80
2024-01-25T10:28:07.841Z,5.68
2024-01-25T10:30:38.153Z,5.30
2024-01-25T10:33:07.253Z,7.15
2024-01-25T10:35:36.550Z,5.90
2024-01-25T10:38:06.764Z,7.13
2024-01-25T10:40:35.690Z,6.13
2024-01-25T10:43:04.306Z,6.47
2024-01-25T10:45:32.911Z,6.32
2024-01-25T10:48:02.142Z,6.55
2024-01-25T10:50:30.766Z,6.35
2024-01-25T10:53:00.831Z,5.97
2024-01-25T10:55:31.212Z,5.78
2024-01-25T10:57:59.779Z,6.97
2024-01-25T11:00:28.275Z,5.57
2024-01-25T11:02:58.024Z,5.57
2024-01-25T11:05:26.893Z,6.35
2024-01-25T11:07:57.165Z,6.28
2024-01-25T11:10:28.574Z,5.63
2024-01-25T11:13:01.967Z,5.93
2024-01-25T11:15:33.913Z,6.38
2024-01-25T11:18:03.869Z,5.88
2024-01-25T11:20:33.194Z,5.88
2024-01-25T11:23:04.168Z,5.80
2024-01-25T11:25:33.800Z,5.70
2024-01-25T11:28:04.788Z,5.85
2024-01-25T11:30:34.864Z,5.32
2024-01-25T11:33:06.843Z,5.82
2024-01-25T11:35:35.832Z,6.22
2024-01-25T11:38:05.208Z,5.82
2024-01-25T11:40:37.550Z,5.68
2024-01-25T11:43:13.552Z,4.97
2024-01-25T11:45:44.608Z,5.88
2024-01-25T11:48:13.845Z,5.40
2024-01-25T11:50:42.584Z,5.90
2024-01-25T11:53:11.199Z,5.53
2024-01-25T11:55:39.841Z,6.18
2024-01-25T11:58:10.085Z,5.45
2024-01-25T12:00:39.120Z,5.43
2024-01-25T12:03:08.133Z,5.00
2024-01-25T12:05:36.832Z,6.05
2024-01-25T12:08:11.479Z,5.97
2024-01-25T12:10:40.168Z,6.20
2024-01-25T12:13:11.886Z,5.72
2024-01-25T12:15:40.382Z,5.88
2024-01-25T12:18:11.093Z,6.28
2024-01-25T12:20:39.759Z,6.05
2024-01-25T12:23:10.539Z,5.68
2024-01-25T12:25:42.475Z,6.03
2024-01-25T12:28:13.682Z,6.05
2024-01-25T12:30:42.259Z,5.13
2024-01-25T12:33:12.417Z,5.97
2024-01-25T12:35:41.210Z,5.18
2024-01-25T12:38:10.685Z,5.82
2024-01-25T12:40:39.501Z,5.38
2024-01-25T12:43:08.135Z,5.00
2024-01-25T12:45:38.152Z,5.40
2024-01-25T12:48:09.305Z,4.90
2024-01-25T12:50:38.010Z,5.40
2024-01-25T12:53:07.639Z,5.97
2024-01-25T12:55:36.827Z,5.18
2024-01-25T12:58:06.431Z,5.90
2024-01-25T13:00:35.373Z,5.25
2024-01-25T13:03:05.881Z,5.53
2024-01-25T13:05:35.672Z,5.32
2024-01-25T13:08:04.818Z,5.18
2024-01-25T13:10:33.242Z,5.90
2024-01-25T13:13:01.814Z,5.20
2024-01-25T13:15:30.646Z,6.13
2024-01-25T13:17:59.727Z,5.28
2024-01-25T13:20:29.597Z,5.60
2024-01-25T13:22:58.010Z,5.50
2024-01-25T13:25:26.590Z,5.07
2024-01-25T13:27:55.116Z,5.53
2024-01-25T13:30:23.667Z,5.57
2024-01-25T13:32:52.300Z,5.70
2024-01-25T13:35:20.909Z,5.03
2024-01-25T13:37:50.754Z,5.13
2024-01-25T13:40:21.301Z,5.22
2024-01-25T13:42:50.482Z,4.80
2024-01-25T13:45:19.236Z,4.78
2024-01-25T13:47:47.740Z,4.40
2024-01-25T13:50:16.376Z,4.25
2024-01-25T13:52:44.789Z,4.93
2024-01-25T13:55:14.782Z,4.93
2024-01-25T13:57:43.332Z,4.60
2024-01-25T14:00:13.137Z,5.05
2024-01-25T14:02:43.764Z,5.50
2024-01-25T14:05:12.225Z,5.65
2024-01-25T14:07:40.810Z,4.82
2024-01-25T14:10:10.310Z,4.63
2024-01-25T14:12:40.492Z,4.50
2024-01-25T14:15:09.941Z,5.25
2024-01-25T14:17:38.919Z,4.43
2024-01-25T14:20:09.994Z,4.80
2024-01-25T14:22:38.867Z,4.40
2024-01-25T14:25:07.988Z,4.07
2024-01-25T14:27:37.146Z,5.75
2024-01-25T14:30:08.378Z,5.85
2024-01-25T14:32:37.119Z,5.40
2024-01-25T14:35:06.354Z,5.43
2024-01-25T14:37:34.948Z,5.70
2024-01-25T14:40:16.678Z,5.38
2024-01-25T14:42:52.215Z,4.57
2024-01-25T14:45:22.569Z,4.55
2024-01-25T14:47:51.232Z,5.55
2024-01-25T14:50:20.103Z,4.57
2024-01-25T14:52:48.830Z,4.78
2024-01-25T14:55:17.764Z,4.72
2024-01-25T14:57:46.543Z,4.40
2024-01-25T15:00:20.842Z,4.25
2024-01-25T15:02:50.929Z,4.40
2024-01-25T15:05:19.550Z,4.65
2024-01-25T15:07:47.973Z,4.45
2024-01-25T15:10:16.517Z,4.15
2024-01-25T15:12:45.025Z,5.10
2024-01-25T15:15:13.796Z,4.47
2024-01-25T15:17:42.352Z,4.28
2024-01-25T15:20:13.309Z,4.40
2024-01-25T15:22:41.747Z,3.70
2024-01-25T15:25:10.868Z,4.85
2024-01-25T15:27:39.714Z,4.55
2024-01-25T15:30:10.047Z,5.03
2024-01-25T15:32:40.258Z,4.97
2024-01-25T15:35:09.389Z,5.20
2024-01-25T15:37:39.398Z,4.82
2024-01-25T15:40:12.324Z,5.28
2024-01-25T15:42:41.374Z,5.80
2024-01-25T15:45:10.549Z,4.50
2024-01-25T15:47:39.220Z,4.85
2024-01-25T15:50:08.269Z,4.68
2024-01-25T15:52:38.283Z,6.18
2024-01-25T15:55:07.581Z,4.32
2024-01-25T15:57:36.038Z,4.88
2024-01-25T16:00:04.813Z,5.63
2024-01-25T16:02:38.864Z,5.40
2024-01-25T16:05:07.857Z,4.85
2024-01-25T16:07:36.668Z,5.70
2024-01-25T16:10:08.018Z,5.03
2024-01-25T16:12:36.434Z,5.55
2024-01-25T16:15:05.358Z,5.38
2024-01-25T16:17:34.557Z,5.10
2024-01-25T16:20:05.303Z,5.10
2024-01-25T16:22:34.146Z,5.80
2024-01-25T16:25:02.680Z,6.20
2024-01-25T16:27:32.660Z,4.82
2024-01-25T16:30:01.158Z,5.82
2024-01-25T16:32:29.489Z,8.57
2024-01-25T16:34:58.005Z,10.27
2024-01-25T16:37:26.411Z,10.07
2024-01-25T16:39:54.829Z,14.93
2024-01-25T16:42:23.326Z,11.18
2024-01-25T16:44:53.248Z,17.30
2024-01-25T16:47:21.637Z,13.30
2024-01-25T16:49:50.227Z,13.57
2024-01-25T16:52:18.720Z,11.68
2024-01-25T16:54:47.155Z,11.05
2024-01-25T16:57:15.684Z,9.00
2024-01-25T16:59:44.154Z,7.05
2024-01-25T17:02:13.940Z,8.60
2024-01-25T17:04:42.958Z,6.53
2024-01-25T17:07:11.515Z,6.03
2024-01-25T17:09:40.255Z,8.68
2024-01-25T17:12:09.320Z,9.18
2024-01-25T17:14:37.724Z,8.15
2024-01-25T17:17:07.552Z,5.65
2024-01-25T17:19:37.555Z,6.82
2024-01-25T17:22:06.510Z,6.43
2024-01-25T17:24:35.008Z,5.22
2024-01-25T17:27:03.583Z,5.43
2024-01-25T17:29:32.479Z,5.93
2024-01-25T17:32:00.988Z,5.93
2024-01-25T17:34:29.737Z,5.93
2024-01-25T17:36:59.668Z,5.30
2024-01-25T17:39:28.207Z,5.50
2024-01-25T17:41:56.694Z,11.68
2024-01-25T17:44:25.091Z,8.88
2024-01-25T17:46:53.614Z,11.13
2024-01-25T17:49:22.243Z,6.00
2024-01-25T17:51:50.813Z,6.07
2024-01-25T17:54:20.771Z,5.97
2024-01-25T17:56:49.536Z,5.28
2024-01-25T17:59:18.073Z,5.82
2024-01-25T18:01:46.888Z,4.78
2024-01-25T18:04:15.344Z,5.82
2024-01-25T18:06:43.772Z,5.70
2024-01-25T18:09:12.464Z,5.38
2024-01-25T18:11:42.302Z,5.18
2024-01-25T18:14:10.918Z,5.85
2024-01-25T18:16:39.893Z,5.43
2024-01-25T18:19:08.457Z,5.45
2024-01-25T18:21:38.960Z,4.85
2024-01-25T18:24:08.518Z,5.18
2024-01-25T18:26:37.035Z,7.43
2024-01-25T18:29:06.955Z,5.97
2024-01-25T18:31:35.345Z,6.65
2024-01-25T18:34:03.840Z,6.50
2024-01-25T18:36:32.434Z,6.05
2024-01-25T18:39:00.852Z,5.18
2024-01-25T18:41:29.426Z,5.22
2024-01-25T18:43:57.993Z,6.05
2024-01-25T18:46:27.810Z,5.55
2024-01-25T18:48:56.316Z,6.40
2024-01-25T18:51:24.944Z,6.40
2024-01-25T18:53:54.042Z,6.68
2024-01-25T18:56:27.219Z,4.95
2024-01-25T18:58:57.630Z,5.90
2024-01-25T19:01:28.250Z,6.55
2024-01-25T19:03:57.536Z,5.22
2024-01-25T19:06:30.485Z,6.43
2024-01-25T19:08:59.502Z,6.32
2024-01-25T19:11:27.998Z,8.07
2024-01-25T19:13:56.360Z,6.88
2024-01-25T19:16:24.905Z,5.88
2024-01-25T19:18:54.779Z,6.75
2024-01-25T19:21:23.292Z,7.20
2024-01-25T19:23:52.050Z,7.40
2024-01-25T19:26:20.915Z,7.22
2024-01-25T19:28:49.340Z,6.95
2024-01-25T19:31:17.928Z,7.10
2024-01-25T19:33:46.556Z,7.18
2024-01-25T19:36:16.626Z,7.22
2024-01-25T19:38:45.276Z,8.25
2024-01-25T19:41:14.243Z,6.88
2024-01-25T19:43:43.792Z,8.57
2024-01-25T19:46:12.466Z,7.90
2024-01-25T19:48:40.986Z,8.52
2024-01-25T19:51:09.661Z,8.20
2024-01-25T19:53:39.513Z,8.70
2024-01-25T19:56:08.396Z,7.90
2024-01-25T19:58:37.911Z,9.70
2024-01-25T20:01:07.138Z,9.57
2024-01-25T20:03:36.372Z,10.02
2024-01-25T20:06:05.493Z,9.77
2024-01-25T20:08:34.526Z,10.25
2024-01-25T20:11:04.451Z,9.75
2024-01-25T20:13:33.723Z,10.52
2024-01-25T20:16:02.549Z,9.80
2024-01-25T20:18:31.335Z,10.65
2024-01-25T20:21:01.263Z,11.45
2024-01-25T20:23:30.249Z,12.13
2024-01-25T20:25:58.797Z,12.13
2024-01-25T20:28:28.666Z,11.57
2024-01-25T20:30:57.209Z,12.23
2024-01-25T20:33:25.966Z,13.02
2024-01-25T20:35:54.486Z,12.25
2024-01-25T20:38:22.996Z,11.57
2024-01-25T20:40:51.435Z,12.18
2024-01-25T20:43:19.880Z,13.07
2024-01-25T20:45:49.788Z,13.30
2024-01-25T20:48:18.439Z,13.30
2024-01-25T20:50:47.082Z,14.05
2024-01-25T20:53:15.499Z,14.48
2024-01-25T20:55:43.915Z,14.30
2024-01-25T20:58:12.349Z,14.82
2024-01-25T21:00:40.865Z,14.43
2024-01-25T21:03:12.221Z,14.15
2024-01-25T21:05:41.201Z,13.48
2024-01-25T21:08:10.889Z,14.57
2024-01-25T21:10:39.908Z,15.93
2024-01-25T21:13:09.181Z,14.63
2024-01-25T21:15:37.661Z,14.38
2024-01-25T21:18:07.938Z,16.30
2024-01-25T21:20:37.833Z,15.95
2024-01-25T21:23:06.276Z,15.60
2024-01-25T21:25:34.699Z,15.32
2024-01-25T21:28:03.913Z,17.23
2024-01-25T21:30:32.551Z,17.15
2024-01-25T21:33:01.402Z,16.95
2024-01-25T21:35:30.179Z,15.10
2024-01-25T21:38:00.113Z,18.17
2024-01-25T21:40:28.632Z,16.77
2024-01-25T21:42:57.493Z,17.60
2024-01-25T21:45:26.078Z,17.23
2024-01-25T21:47:54.747Z,17.10
2024-01-25T21:50:23.522Z,18.60
2024-01-25T21:52:52.235Z,18.58
2024-01-25T21:55:23.103Z,18.80
2024-01-25T21:57:54.480Z,18.45
2024-01-25T22:00:25.705Z,17.50
2024-01-25T22:02:54.442Z,19.65
2024-01-25T22:05:23.963Z,18.13
2024-01-25T22:07:54.927Z,21.23
2024-01-25T22:10:25.626Z,19.75
2024-01-25T22:12:54.139Z,19.27
2024-01-25T22:15:22.645Z,20.67
2024-01-25T22:17:51.549Z,19.88
2024-01-25T22:20:20.397Z,20.83
2024-01-25T22:22:48.881Z,19.52
2024-01-25T22:25:17.452Z,19.17
2024-01-25T22:27:47.580Z,19.92
2024-01-25T22:30:19.940Z,19.92
2024-01-25T22:32:48.982Z,20.55
2024-01-25T22:35:17.661Z,21.83
2024-01-25T22:37:46.231Z,19.98
2024-01-25T22:40:15.151Z,20.88
2024-01-25T22:42:43.592Z,20.40
2024-01-25T22:45:13.839Z,19.50
2024-01-25T22:47:42.274Z,19.20
2024-01-25T22:50:11.140Z,20.05
2024-01-25T22:52:39.552Z,18.60
2024-01-25T22:55:08.592Z,20.67
2024-01-25T22:57:37.166Z,19.33
2024-01-25T23:00:09.725Z,19.80
2024-01-25T23:02:39.999Z,20.80
2024-01-25T23:05:09.078Z,20.88
2024-01-25T23:07:37.525Z,19.20
2024-01-25T23:10:07.124Z,18.55
2024-01-25T23:12:36.082Z,18.83
2024-01-25T23:15:05.027Z,19.75
2024-01-25T23:17:34.547Z,20.02
2024-01-25T23:20:05.203Z,18.63
2024-01-25T23:22:34.345Z,19.17
2024-01-25T23:25:03.149Z,20.63
2024-01-25T23:27:31.643Z,20.45
2024-01-25T23:30:00.137Z,19.90
2024-01-25T23:32:28.571Z,19.17
2024-01-25T23:34:57.079Z,18.17
2024-01-25T23:37:26.864Z,20.60
2024-01-25T23:39:58.694Z,19.23
2024-01-25T23:42:27.356Z,19.35
2024-01-25T23:44:56.326Z,19.13
2024-01-25T23:47:25.134Z,18.75
2024-01-25T23:49:54.301Z,17.85
2024-01-25T23:52:22.829Z,17.63
2024-01-25T23:54:52.844Z,17.77
2024-01-25T23:57:21.498Z,18.20
2024-01-25T23:59:49.968Z,18.02
